sensor_id;sensor_type;location;lat;lon;timestamp;P1;durP1;ratioP1;P2;durP2;ratioP2
2001;SDS011;1003;48.002;7.788;2023-04-03T00:00:51;4.67;;;3.40;;
2001;SDS011;1003;48.002;7.788;2023-04-03T00:03:18;4.60;;;3.70;;
2001;SDS011;1003;48.002;7.788;2023-04-03T00:05:46;4.90;;;3.87;;
2001;SDS011;1003;48.002;7.788;2023-04-03T00:08:15;4.60;;;3.70;;
2001;SDS011;1003;48.002;7.788;2023-04-03T00:10:42;6.27;;;3.77;;
2001;SDS011;1003;48.002;7.788;2023-04-03T00:13:09;5.47;;;3.57;;
2001;SDS011;1003;48.002;7.788;2023-04-03T00:15:37;4.90;;;3.77;;
2001;SDS011;1003;48.002;7.788;2023-04-03T00:18:05;5.57;;;3.60;;
2001;SDS011;1003;48.002;7.788;2023-04-03T00:20:33;4.80;;;3.60;;
2001;SDS011;1003;48.002;7.788;2023-04-03T00:23:01;7.10;;;3.80;;
2001;SDS011;1003;48.002;7.788;2023-04-03T00:25:29;4.53;;;3.47;;
2001;SDS011;1003;48.002;7.788;2023-04-03T00:27:56;5.33;;;3.77;;
2001;SDS011;1003;48.002;7.788;2023-04-03T00:30:23;4.50;;;3.70;;
2001;SDS011;1003;48.002;7.788;2023-04-03T00:32:51;6.20;;;3.60;;
2001;SDS011;1003;48.002;7.788;2023-04-03T00:35:19;4.00;;;3.60;;
2001;SDS011;1003;48.002;7.788;2023-04-03T00:37:47;4.40;;;3.40;;
2001;SDS011;1003;48.002;7.788;2023-04-03T00:40:17;6.23;;;3.27;;
2001;SDS011;1003;48.002;7.788;2023-04-03T00:42:46;5.07;;;3.50;;
2001;SDS011;1003;48.002;7.788;2023-04-03T00:45:25;4.97;;;3.40;;
2001;SDS011;1003;48.002;7.788;2023-04-03T00:47:59;6.90;;;3.80;;
2001;SDS011;1003;48.002;7.788;2023-04-03T00:50:31;4.53;;;3.40;;
2001;SDS011;1003;48.002;7.788;2023-04-03T00:53:03;4.60;;;3.30;;
2001;SDS011;1003;48.002;7.788;2023-04-03T00:55:32;4.10;;;3.17;;
2001;SDS011;1003;48.002;7.788;2023-04-03T00:58:02;4.70;;;3.70;;
2001;SDS011;1003;48.002;7.788;2023-04-03T01:00:32;3.73;;;3.30;;
2001;SDS011;1003;48.002;7.788;2023-04-03T01:03:01;4.23;;;3.10;;
2001;SDS011;1003;48.002;7.788;2023-04-03T01:05:29;3.40;;;3.00;;
2001;SDS011;1003;48.002;7.788;2023-04-03T01:07:56;5.43;;;3.80;;
2001;SDS011;1003;48.002;7.788;2023-04-03T01:10:24;5.07;;;3.30;;
2001;SDS011;1003;48.002;7.788;2023-04-03T01:12:51;4.67;;;3.27;;
2001;SDS011;1003;48.002;7.788;2023-04-03T01:15:21;4.30;;;3.50;;
2001;SDS011;1003;48.002;7.788;2023-04-03T01:17:50;5.00;;;3.30;;
2001;SDS011;1003;48.002;7.788;2023-04-03T01:20:31;4.93;;;3.53;;
2001;SDS011;1003;48.002;7.788;2023-04-03T01:26:42;4.47;;;3.40;;
2001;SDS011;1003;48.002;7.788;2023-04-03T01:29:10;3.90;;;3.20;;
2001;SDS011;1003;48.002;7.788;2023-04-03T01:31:45;4.87;;;3.67;;
2001;SDS011;1003;48.002;7.788;2023-04-03T01:34:15;3.77;;;3.13;;
2001;SDS011;1003;48.002;7.788;2023-04-03T01:36:42;5.43;;;3.30;;
2001;SDS011;1003;48.002;7.788;2023-04-03T01:39:10;4.17;;;3.37;;
2001;SDS011;1003;48.002;7.788;2023-04-03T01:41:37;3.90;;;3.23;;
2001;SDS011;1003;48.002;7.788;2023-04-03T01:44:05;5.03;;;3.43;;
2001;SDS011;1003;48.002;7.788;2023-04-03T01:46:32;4.17;;;3.10;;
2001;SDS011;1003;48.002;7.788;2023-04-03T01:49:01;4.33;;;3.43;;
2001;SDS011;1003;48.002;7.788;2023-04-03T01:51:28;3.40;;;2.93;;
2001;SDS011;1003;48.002;7.788;2023-04-03T01:53:56;5.43;;;3.30;;
2001;SDS011;1003;48.002;7.788;2023-04-03T01:56:23;4.50;;;2.93;;
2001;SDS011;1003;48.002;7.788;2023-04-03T01:58:50;4.73;;;3.20;;
2001;SDS011;1003;48.002;7.788;2023-04-03T02:01:17;4.20;;;3.13;;
2001;SDS011;1003;48.002;7.788;2023-04-03T02:03:44;3.83;;;3.10;;
2001;SDS011;1003;48.002;7.788;2023-04-03T02:06:12;4.63;;;3.30;;
2001;SDS011;1003;48.002;7.788;2023-04-03T02:08:39;4.70;;;3.40;;
2001;SDS011;1003;48.002;7.788;2023-04-03T02:11:06;5.17;;;3.27;;
2001;SDS011;1003;48.002;7.788;2023-04-03T02:13:33;5.87;;;3.53;;
2001;SDS011;1003;48.002;7.788;2023-04-03T02:16:05;3.43;;;3.10;;
2001;SDS011;1003;48.002;7.788;2023-04-03T02:18:34;3.90;;;3.30;;
2001;SDS011;1003;48.002;7.788;2023-04-03T02:21:02;4.97;;;3.70;;
2001;SDS011;1003;48.002;7.788;2023-04-03T02:23:31;6.37;;;3.30;;
2001;SDS011;1003;48.002;7.788;2023-04-03T02:26:04;4.07;;;3.20;;
2001;SDS011;1003;48.002;7.788;2023-04-03T02:28:34;4.50;;;3.53;;
2001;SDS011;1003;48.002;7.788;2023-04-03T02:31:02;4.50;;;3.40;;
2001;SDS011;1003;48.002;7.788;2023-04-03T02:33:31;5.23;;;3.60;;
2001;SDS011;1003;48.002;7.788;2023-04-03T02:35:58;6.07;;;3.90;;
2001;SDS011;1003;48.002;7.788;2023-04-03T02:38:25;4.73;;;3.67;;
2001;SDS011;1003;48.002;7.788;2023-04-03T02:40:55;5.23;;;3.87;;
2001;SDS011;1003;48.002;7.788;2023-04-03T02:43:26;5.77;;;3.73;;
2001;SDS011;1003;48.002;7.788;2023-04-03T02:45:54;4.33;;;3.37;;
2001;SDS011;1003;48.002;7.788;2023-04-03T02:48:21;4.67;;;3.40;;
2001;SDS011;1003;48.002;7.788;2023-04-03T02:50:48;4.10;;;3.10;;
2001;SDS011;1003;48.002;7.788;2023-04-03T02:53:15;4.33;;;3.30;;
2001;SDS011;1003;48.002;7.788;2023-04-03T02:55:42;5.13;;;3.73;;
2001;SDS011;1003;48.002;7.788;2023-04-03T02:58:12;5.13;;;3.70;;
2001;SDS011;1003;48.002;7.788;2023-04-03T03:00:39;6.70;;;3.40;;
2001;SDS011;1003;48.002;7.788;2023-04-03T03:03:06;4.77;;;3.63;;
2001;SDS011;1003;48.002;7.788;2023-04-03T03:05:33;5.20;;;3.30;;
2001;SDS011;1003;48.002;7.788;2023-04-03T03:08:01;5.47;;;3.60;;
2001;SDS011;1003;48.002;7.788;2023-04-03T03:10:28;4.57;;;3.30;;
2001;SDS011;1003;48.002;7.788;2023-04-03T03:12:55;5.83;;;3.77;;
2001;SDS011;1003;48.002;7.788;2023-04-03T03:15:23;5.37;;;3.40;;
2001;SDS011;1003;48.002;7.788;2023-04-03T03:17:50;5.13;;;3.43;;
2001;SDS011;1003;48.002;7.788;2023-04-03T03:20:17;4.70;;;3.57;;
2001;SDS011;1003;48.002;7.788;2023-04-03T03:22:45;4.40;;;3.20;;
2001;SDS011;1003;48.002;7.788;2023-04-03T03:25:13;5.50;;;3.57;;
2001;SDS011;1003;48.002;7.788;2023-04-03T03:27:40;4.43;;;3.60;;
2001;SDS011;1003;48.002;7.788;2023-04-03T03:30:07;4.40;;;3.27;;
2001;SDS011;1003;48.002;7.788;2023-04-03T03:32:36;3.80;;;3.30;;
2001;SDS011;1003;48.002;7.788;2023-04-03T03:35:04;4.10;;;3.20;;
2001;SDS011;1003;48.002;7.788;2023-04-03T03:37:31;5.13;;;3.40;;
2001;SDS011;1003;48.002;7.788;2023-04-03T03:39:58;5.80;;;3.37;;
2001;SDS011;1003;48.002;7.788;2023-04-03T03:42:25;4.63;;;3.40;;
2001;SDS011;1003;48.002;7.788;2023-04-03T03:44:52;4.30;;;3.10;;
2001;SDS011;1003;48.002;7.788;2023-04-03T03:47:19;3.97;;;3.13;;
2001;SDS011;1003;48.002;7.788;2023-04-03T03:49:47;4.97;;;3.23;;
2001;SDS011;1003;48.002;7.788;2023-04-03T03:52:14;5.00;;;3.30;;
2001;SDS011;1003;48.002;7.788;2023-04-03T03:54:42;5.90;;;3.20;;
2001;SDS011;1003;48.002;7.788;2023-04-03T03:57:09;5.23;;;3.57;;
2001;SDS011;1003;48.002;7.788;2023-04-03T03:59:36;5.73;;;3.37;;
2001;SDS011;1003;48.002;7.788;2023-04-03T04:02:03;4.33;;;3.30;;
2001;SDS011;1003;48.002;7.788;2023-04-03T04:04:30;3.97;;;3.10;;
2001;SDS011;1003;48.002;7.788;2023-04-03T04:06:58;4.10;;;3.37;;
2001;SDS011;1003;48.002;7.788;2023-04-03T04:09:25;4.57;;;3.23;;
2001;SDS011;1003;48.002;7.788;2023-04-03T04:11:52;4.33;;;3.30;;
2001;SDS011;1003;48.002;7.788;2023-04-03T04:14:19;3.97;;;3.00;;
2001;SDS011;1003;48.002;7.788;2023-04-03T04:16:47;5.07;;;3.10;;
2001;SDS011;1003;48.002;7.788;2023-04-03T04:19:14;5.20;;;3.73;;
2001;SDS011;1003;48.002;7.788;2023-04-03T04:21:41;6.57;;;4.03;;
2001;SDS011;1003;48.002;7.788;2023-04-03T04:24:10;6.53;;;4.13;;
2001;SDS011;1003;48.002;7.788;2023-04-03T04:26:37;5.10;;;3.20;;
2001;SDS011;1003;48.002;7.788;2023-04-03T04:29:04;4.83;;;3.17;;
2001;SDS011;1003;48.002;7.788;2023-04-03T04:31:31;4.07;;;3.30;;
2001;SDS011;1003;48.002;7.788;2023-04-03T04:33:58;11.80;;;7.70;;
2001;SDS011;1003;48.002;7.788;2023-04-03T04:36:25;6.30;;;3.70;;
2001;SDS011;1003;48.002;7.788;2023-04-03T04:38:52;4.60;;;3.93;;
2001;SDS011;1003;48.002;7.788;2023-04-03T04:41:21;5.60;;;3.40;;
2001;SDS011;1003;48.002;7.788;2023-04-03T04:43:48;5.07;;;3.23;;
2001;SDS011;1003;48.002;7.788;2023-04-03T04:46:18;6.53;;;3.63;;
2001;SDS011;1003;48.002;7.788;2023-04-03T04:48:45;6.13;;;3.60;;
2001;SDS011;1003;48.002;7.788;2023-04-03T04:51:13;5.60;;;4.53;;
2001;SDS011;1003;48.002;7.788;2023-04-03T04:53:40;5.33;;;3.90;;
2001;SDS011;1003;48.002;7.788;2023-04-03T04:56:08;4.63;;;3.50;;
2001;SDS011;1003;48.002;7.788;2023-04-03T04:58:37;5.00;;;4.33;;
2001;SDS011;1003;48.002;7.788;2023-04-03T05:01:05;4.90;;;3.53;;
2001;SDS011;1003;48.002;7.788;2023-04-03T05:03:34;4.50;;;3.57;;
2001;SDS011;1003;48.002;7.788;2023-04-03T05:06:01;5.17;;;3.80;;
2001;SDS011;1003;48.002;7.788;2023-04-03T05:08:29;4.93;;;3.20;;
2001;SDS011;1003;48.002;7.788;2023-04-03T05:10:57;5.23;;;3.40;;
2001;SDS011;1003;48.002;7.788;2023-04-03T05:13:24;4.63;;;3.33;;
2001;SDS011;1003;48.002;7.788;2023-04-03T05:15:52;6.57;;;3.87;;
2001;SDS011;1003;48.002;7.788;2023-04-03T05:18:19;4.07;;;3.27;;
2001;SDS011;1003;48.002;7.788;2023-04-03T05:20:48;4.73;;;3.43;;
2001;SDS011;1003;48.002;7.788;2023-04-03T05:23:15;4.70;;;3.43;;
2001;SDS011;1003;48.002;7.788;2023-04-03T05:25:43;4.83;;;3.50;;
2001;SDS011;1003;48.002;7.788;2023-04-03T05:28:12;5.77;;;3.10;;
2001;SDS011;1003;48.002;7.788;2023-04-03T05:30:39;5.43;;;3.63;;
2001;SDS011;1003;48.002;7.788;2023-04-03T05:33:08;4.93;;;3.63;;
2001;SDS011;1003;48.002;7.788;2023-04-03T05:35:35;4.17;;;3.40;;
2001;SDS011;1003;48.002;7.788;2023-04-03T05:38:04;5.53;;;3.60;;
2001;SDS011;1003;48.002;7.788;2023-04-03T05:40:31;6.00;;;3.50;;
2001;SDS011;1003;48.002;7.788;2023-04-03T05:42:58;6.83;;;3.40;;
2001;SDS011;1003;48.002;7.788;2023-04-03T05:45:25;6.17;;;3.60;;
2001;SDS011;1003;48.002;7.788;2023-04-03T05:47:52;4.00;;;3.23;;
2001;SDS011;1003;48.002;7.788;2023-04-03T05:50:20;5.13;;;3.57;;
2001;SDS011;1003;48.002;7.788;2023-04-03T05:52:49;5.87;;;3.90;;
2001;SDS011;1003;48.002;7.788;2023-04-03T05:55:21;6.00;;;4.10;;
2001;SDS011;1003;48.002;7.788;2023-04-03T05:57:48;4.17;;;3.30;;
2001;SDS011;1003;48.002;7.788;2023-04-03T06:00:15;4.37;;;3.50;;
2001;SDS011;1003;48.002;7.788;2023-04-03T06:02:43;5.60;;;4.07;;
2001;SDS011;1003;48.002;7.788;2023-04-03T06:05:10;4.57;;;3.60;;
2001;SDS011;1003;48.002;7.788;2023-04-03T06:07:39;5.67;;;3.60;;
2001;SDS011;1003;48.002;7.788;2023-04-03T06:10:07;5.50;;;3.40;;
2001;SDS011;1003;48.002;7.788;2023-04-03T06:12:37;4.77;;;3.60;;
2001;SDS011;1003;48.002;7.788;2023-04-03T06:15:04;4.20;;;3.10;;
2001;SDS011;1003;48.002;7.788;2023-04-03T06:17:35;5.80;;;3.63;;
2001;SDS011;1003;48.002;7.788;2023-04-03T06:20:03;5.17;;;3.67;;
2001;SDS011;1003;48.002;7.788;2023-04-03T06:22:32;6.37;;;4.17;;
2001;SDS011;1003;48.002;7.788;2023-04-03T06:25:01;4.37;;;3.30;;
2001;SDS011;1003;48.002;7.788;2023-04-03T06:27:28;5.47;;;3.30;;
2001;SDS011;1003;48.002;7.788;2023-04-03T06:29:55;4.70;;;3.50;;
2001;SDS011;1003;48.002;7.788;2023-04-03T06:32:22;4.80;;;3.57;;
2001;SDS011;1003;48.002;7.788;2023-04-03T06:34:50;4.53;;;3.57;;
2001;SDS011;1003;48.002;7.788;2023-04-03T06:37:19;5.20;;;3.30;;
2001;SDS011;1003;48.002;7.788;2023-04-03T06:39:50;4.53;;;3.60;;
2001;SDS011;1003;48.002;7.788;2023-04-03T06:42:19;4.40;;;3.37;;
2001;SDS011;1003;48.002;7.788;2023-04-03T06:44:47;4.23;;;3.47;;
2001;SDS011;1003;48.002;7.788;2023-04-03T06:47:14;3.50;;;3.13;;
2001;SDS011;1003;48.002;7.788;2023-04-03T06:49:43;4.23;;;3.20;;
2001;SDS011;1003;48.002;7.788;2023-04-03T06:52:11;4.03;;;3.30;;
2001;SDS011;1003;48.002;7.788;2023-04-03T06:54:38;4.27;;;3.03;;
2001;SDS011;1003;48.002;7.788;2023-04-03T06:57:06;4.83;;;3.30;;
2001;SDS011;1003;48.002;7.788;2023-04-03T06:59:35;3.73;;;3.03;;
2001;SDS011;1003;48.002;7.788;2023-04-03T07:02:02;4.23;;;3.10;;
2001;SDS011;1003;48.002;7.788;2023-04-03T07:04:29;4.10;;;3.07;;
2001;SDS011;1003;48.002;7.788;2023-04-03T07:06:56;4.63;;;3.20;;
2001;SDS011;1003;48.002;7.788;2023-04-03T07:09:23;4.00;;;3.07;;
2001;SDS011;1003;48.002;7.788;2023-04-03T07:11:51;4.13;;;3.10;;
2001;SDS011;1003;48.002;7.788;2023-04-03T07:14:18;4.13;;;3.00;;
2001;SDS011;1003;48.002;7.788;2023-04-03T07:16:47;3.90;;;2.93;;
2001;SDS011;1003;48.002;7.788;2023-04-03T07:19:14;3.90;;;2.63;;
2001;SDS011;1003;48.002;7.788;2023-04-03T07:21:43;4.83;;;2.40;;
2001;SDS011;1003;48.002;7.788;2023-04-03T07:24:10;3.37;;;2.50;;
2001;SDS011;1003;48.002;7.788;2023-04-03T07:26:37;2.83;;;2.40;;
2001;SDS011;1003;48.002;7.788;2023-04-03T07:29:04;3.93;;;2.40;;
2001;SDS011;1003;48.002;7.788;2023-04-03T07:31:34;3.23;;;2.40;;
2001;SDS011;1003;48.002;7.788;2023-04-03T07:34:02;4.00;;;2.07;;
2001;SDS011;1003;48.002;7.788;2023-04-03T07:36:30;2.57;;;2.33;;
2001;SDS011;1003;48.002;7.788;2023-04-03T07:38:58;2.10;;;2.00;;
2001;SDS011;1003;48.002;7.788;2023-04-03T07:41:25;2.30;;;2.10;;
2001;SDS011;1003;48.002;7.788;2023-04-03T07:43:53;2.57;;;1.70;;
2001;SDS011;1003;48.002;7.788;2023-04-03T07:46:21;2.10;;;1.87;;
2001;SDS011;1003;48.002;7.788;2023-04-03T07:48:49;2.90;;;2.00;;
2001;SDS011;1003;48.002;7.788;2023-04-03T07:51:20;2.37;;;1.80;;
2001;SDS011;1003;48.002;7.788;2023-04-03T07:53:47;1.77;;;1.67;;
2001;SDS011;1003;48.002;7.788;2023-04-03T07:56:14;2.10;;;1.80;;
2001;SDS011;1003;48.002;7.788;2023-04-03T07:58:43;2.50;;;2.20;;
2001;SDS011;1003;48.002;7.788;2023-04-03T08:01:10;2.40;;;1.90;;
2001;SDS011;1003;48.002;7.788;2023-04-03T08:03:37;2.40;;;2.10;;
2001;SDS011;1003;48.002;7.788;2023-04-03T08:06:05;2.57;;;1.90;;
2001;SDS011;1003;48.002;7.788;2023-04-03T08:08:35;2.33;;;2.10;;
2001;SDS011;1003;48.002;7.788;2023-04-03T08:11:02;2.30;;;2.00;;
2001;SDS011;1003;48.002;7.788;2023-04-03T08:13:31;2.77;;;2.40;;
2001;SDS011;1003;48.002;7.788;2023-04-03T08:16:06;3.70;;;2.50;;
2001;SDS011;1003;48.002;7.788;2023-04-03T08:18:36;3.23;;;2.30;;
2001;SDS011;1003;48.002;7.788;2023-04-03T08:21:05;3.33;;;2.23;;
2001;SDS011;1003;48.002;7.788;2023-04-03T08:23:33;2.47;;;2.27;;
2001;SDS011;1003;48.002;7.788;2023-04-03T08:26:05;2.73;;;2.30;;
2001;SDS011;1003;48.002;7.788;2023-04-03T08:28:35;3.00;;;2.10;;
2001;SDS011;1003;48.002;7.788;2023-04-03T08:31:02;2.80;;;2.50;;
2001;SDS011;1003;48.002;7.788;2023-04-03T08:33:32;3.20;;;2.40;;
2001;SDS011;1003;48.002;7.788;2023-04-03T08:36:02;4.10;;;2.70;;
2001;SDS011;1003;48.002;7.788;2023-04-03T08:38:31;2.40;;;2.20;;
2001;SDS011;1003;48.002;7.788;2023-04-03T08:41:04;2.47;;;2.27;;
2001;SDS011;1003;48.002;7.788;2023-04-03T08:43:44;3.40;;;2.50;;
2001;SDS011;1003;48.002;7.788;2023-04-03T08:46:31;3.03;;;2.73;;
2001;SDS011;1003;48.002;7.788;2023-04-03T08:49:14;3.13;;;2.83;;
2001;SDS011;1003;48.002;7.788;2023-04-03T08:51:52;3.30;;;2.77;;
2001;SDS011;1003;48.002;7.788;2023-04-03T08:54:27;3.03;;;2.70;;
2001;SDS011;1003;48.002;7.788;2023-04-03T08:57:01;3.73;;;2.83;;
2001;SDS011;1003;48.002;7.788;2023-04-03T08:59:32;3.13;;;2.83;;
2001;SDS011;1003;48.002;7.788;2023-04-03T09:02:04;3.80;;;2.77;;
2001;SDS011;1003;48.002;7.788;2023-04-03T09:04:52;2.57;;;2.37;;
2001;SDS011;1003;48.002;7.788;2023-04-03T09:07:25;2.93;;;2.63;;
2001;SDS011;1003;48.002;7.788;2023-04-03T09:10:03;3.07;;;2.63;;
2001;SDS011;1003;48.002;7.788;2023-04-03T09:12:34;4.23;;;2.73;;
2001;SDS011;1003;48.002;7.788;2023-04-03T09:15:09;2.93;;;2.63;;
2001;SDS011;1003;48.002;7.788;2023-04-03T09:17:46;3.70;;;2.90;;
2001;SDS011;1003;48.002;7.788;2023-04-03T09:20:27;3.17;;;2.80;;
2001;SDS011;1003;48.002;7.788;2023-04-03T09:23:15;3.63;;;2.70;;
2001;SDS011;1003;48.002;7.788;2023-04-03T09:25:56;4.10;;;2.70;;
2001;SDS011;1003;48.002;7.788;2023-04-03T09:28:31;2.80;;;2.60;;
2001;SDS011;1003;48.002;7.788;2023-04-03T09:31:01;3.23;;;2.70;;
2001;SDS011;1003;48.002;7.788;2023-04-03T09:33:43;4.23;;;2.83;;
2001;SDS011;1003;48.002;7.788;2023-04-03T09:36:11;3.07;;;2.77;;
2001;SDS011;1003;48.002;7.788;2023-04-03T09:38:39;3.80;;;3.17;;
2001;SDS011;1003;48.002;7.788;2023-04-03T09:41:12;5.30;;;3.10;;
2001;SDS011;1003;48.002;7.788;2023-04-03T09:43:51;3.57;;;2.90;;
2001;SDS011;1003;48.002;7.788;2023-04-03T09:46:29;2.83;;;2.50;;
2001;SDS011;1003;48.002;7.788;2023-04-03T09:48:58;6.90;;;2.40;;
2001;SDS011;1003;48.002;7.788;2023-04-03T09:51:28;2.73;;;2.30;;
2001;SDS011;1003;48.002;7.788;2023-04-03T09:53:56;2.37;;;2.17;;
2001;SDS011;1003;48.002;7.788;2023-04-03T09:56:24;2.80;;;2.13;;
2001;SDS011;1003;48.002;7.788;2023-04-03T09:59:08;2.47;;;2.10;;
2001;SDS011;1003;48.002;7.788;2023-04-03T10:01:42;2.43;;;2.10;;
2001;SDS011;1003;48.002;7.788;2023-04-03T10:04:24;2.23;;;1.93;;
2001;SDS011;1003;48.002;7.788;2023-04-03T10:06:51;2.13;;;1.87;;
2001;SDS011;1003;48.002;7.788;2023-04-03T10:09:21;2.63;;;2.10;;
2001;SDS011;1003;48.002;7.788;2023-04-03T10:11:58;2.33;;;2.00;;
2001;SDS011;1003;48.002;7.788;2023-04-03T10:14:31;2.80;;;1.90;;
2001;SDS011;1003;48.002;7.788;2023-04-03T10:17:09;2.87;;;2.30;;
2001;SDS011;1003;48.002;7.788;2023-04-03T10:19:50;2.50;;;2.10;;
2001;SDS011;1003;48.002;7.788;2023-04-03T10:22:26;1.97;;;1.60;;
2001;SDS011;1003;48.002;7.788;2023-04-03T10:25:10;2.17;;;1.90;;
2001;SDS011;1003;48.002;7.788;2023-04-03T10:27:49;2.17;;;1.80;;
2001;SDS011;1003;48.002;7.788;2023-04-03T10:30:31;2.37;;;1.90;;
2001;SDS011;1003;48.002;7.788;2023-04-03T10:33:16;2.00;;;1.80;;
2001;SDS011;1003;48.002;7.788;2023-04-03T10:35:58;1.70;;;1.60;;
2001;SDS011;1003;48.002;7.788;2023-04-03T10:38:41;1.87;;;1.63;;
2001;SDS011;1003;48.002;7.788;2023-04-03T10:41:20;1.80;;;1.70;;
2001;SDS011;1003;48.002;7.788;2023-04-03T10:43:59;2.00;;;1.80;;
2001;SDS011;1003;48.002;7.788;2023-04-03T10:46:43;2.30;;;2.10;;
2001;SDS011;1003;48.002;7.788;2023-04-03T10:49:21;2.23;;;1.70;;
2001;SDS011;1003;48.002;7.788;2023-04-03T10:52:06;2.23;;;2.07;;
2001;SDS011;1003;48.002;7.788;2023-04-03T10:54:44;2.77;;;2.00;;
2001;SDS011;1003;48.002;7.788;2023-04-03T10:57:23;2.37;;;1.80;;
2001;SDS011;1003;48.002;7.788;2023-04-03T10:59:53;2.10;;;1.90;;
2001;SDS011;1003;48.002;7.788;2023-04-03T11:02:27;1.93;;;1.80;;
2001;SDS011;1003;48.002;7.788;2023-04-03T11:04:59;1.83;;;1.70;;
2001;SDS011;1003;48.002;7.788;2023-04-03T11:07:34;3.17;;;1.90;;
2001;SDS011;1003;48.002;7.788;2023-04-03T11:10:10;2.20;;;2.00;;
2001;SDS011;1003;48.002;7.788;2023-04-03T11:12:51;3.27;;;2.10;;
2001;SDS011;1003;48.002;7.788;2023-04-03T11:15:25;1.60;;;1.50;;
2001;SDS011;1003;48.002;7.788;2023-04-03T11:18:00;1.97;;;1.83;;
2001;SDS011;1003;48.002;7.788;2023-04-03T11:20:34;2.00;;;1.70;;
2001;SDS011;1003;48.002;7.788;2023-04-03T11:23:05;2.10;;;1.90;;
2001;SDS011;1003;48.002;7.788;2023-04-03T11:25:45;2.27;;;2.00;;
2001;SDS011;1003;48.002;7.788;2023-04-03T11:28:19;2.10;;;1.90;;
2001;SDS011;1003;48.002;7.788;2023-04-03T11:30:47;2.70;;;2.50;;
2001;SDS011;1003;48.002;7.788;2023-04-03T11:33:30;3.07;;;2.10;;
2001;SDS011;1003;48.002;7.788;2023-04-03T11:36:12;2.17;;;1.80;;
2001;SDS011;1003;48.002;7.788;2023-04-03T11:38:47;2.30;;;2.10;;
2001;SDS011;1003;48.002;7.788;2023-04-03T11:41:26;2.20;;;1.90;;
2001;SDS011;1003;48.002;7.788;2023-04-03T11:43:57;2.13;;;2.00;;
2001;SDS011;1003;48.002;7.788;2023-04-03T11:58:21;1.90;;;1.80;;
2001;SDS011;1003;48.002;7.788;2023-04-03T12:00:52;1.97;;;1.80;;
2001;SDS011;1003;48.002;7.788;2023-04-03T12:12:57;2.23;;;1.90;;
2001;SDS011;1003;48.002;7.788;2023-04-03T12:24:44;2.07;;;1.87;;
2001;SDS011;1003;48.002;7.788;2023-04-03T12:27:25;2.33;;;1.80;;
2001;SDS011;1003;48.002;7.788;2023-04-03T12:30:05;2.20;;;2.00;;
2001;SDS011;1003;48.002;7.788;2023-04-03T12:35:54;2.20;;;2.00;;
2001;SDS011;1003;48.002;7.788;2023-04-03T12:38:34;2.20;;;1.87;;
2001;SDS011;1003;48.002;7.788;2023-04-03T12:41:26;3.03;;;2.50;;
2001;SDS011;1003;48.002;7.788;2023-04-03T12:47:10;2.40;;;2.10;;
2001;SDS011;1003;48.002;7.788;2023-04-03T12:49:52;2.80;;;2.07;;
2001;SDS011;1003;48.002;7.788;2023-04-03T12:52:26;2.13;;;1.87;;
2001;SDS011;1003;48.002;7.788;2023-04-03T12:55:03;2.67;;;2.00;;
2001;SDS011;1003;48.002;7.788;2023-04-03T12:57:42;2.07;;;1.80;;
2001;SDS011;1003;48.002;7.788;2023-04-03T13:03:05;3.40;;;2.10;;
2001;SDS011;1003;48.002;7.788;2023-04-03T13:05:48;2.70;;;2.30;;
2001;SDS011;1003;48.002;7.788;2023-04-03T13:08:15;2.10;;;2.00;;
2001;SDS011;1003;48.002;7.788;2023-04-03T13:10:51;2.00;;;1.80;;
2001;SDS011;1003;48.002;7.788;2023-04-03T13:13:25;2.10;;;1.80;;
2001;SDS011;1003;48.002;7.788;2023-04-03T13:15:53;2.07;;;1.97;;
2001;SDS011;1003;48.002;7.788;2023-04-03T13:18:21;2.47;;;2.27;;
2001;SDS011;1003;48.002;7.788;2023-04-03T13:20:51;3.00;;;2.30;;
2001;SDS011;1003;48.002;7.788;2023-04-03T13:23:20;3.20;;;2.30;;
2001;SDS011;1003;48.002;7.788;2023-04-03T13:25:48;2.30;;;2.10;;
2001;SDS011;1003;48.002;7.788;2023-04-03T13:28:18;2.40;;;2.20;;
2001;SDS011;1003;48.002;7.788;2023-04-03T13:30:57;2.67;;;2.00;;
2001;SDS011;1003;48.002;7.788;2023-04-03T13:33:31;2.43;;;2.23;;
2001;SDS011;1003;48.002;7.788;2023-04-03T13:36:05;2.57;;;2.00;;
2001;SDS011;1003;48.002;7.788;2023-04-03T13:38:37;3.50;;;2.23;;
2001;SDS011;1003;48.002;7.788;2023-04-03T13:41:20;2.37;;;2.00;;
2001;SDS011;1003;48.002;7.788;2023-04-03T13:43:51;3.03;;;1.90;;
2001;SDS011;1003;48.002;7.788;2023-04-03T13:46:23;2.43;;;2.23;;
2001;SDS011;1003;48.002;7.788;2023-04-03T13:48:54;2.17;;;1.97;;
2001;SDS011;1003;48.002;7.788;2023-04-03T13:51:23;2.60;;;2.07;;
2001;SDS011;1003;48.002;7.788;2023-04-03T13:53:53;3.37;;;2.03;;
2001;SDS011;1003;48.002;7.788;2023-04-03T13:56:25;2.33;;;2.13;;
2001;SDS011;1003;48.002;7.788;2023-04-03T13:59:03;2.20;;;2.00;;
2001;SDS011;1003;48.002;7.788;2023-04-03T14:01:50;2.73;;;2.20;;
2001;SDS011;1003;48.002;7.788;2023-04-03T14:04:21;2.40;;;1.90;;
2001;SDS011;1003;48.002;7.788;2023-04-03T14:06:51;3.90;;;2.07;;
2001;SDS011;1003;48.002;7.788;2023-04-03T14:09:19;2.47;;;2.00;;
2001;SDS011;1003;48.002;7.788;2023-04-03T14:11:49;4.40;;;2.03;;
2001;SDS011;1003;48.002;7.788;2023-04-03T14:14:21;3.37;;;2.00;;
2001;SDS011;1003;48.002;7.788;2023-04-03T14:16:59;2.17;;;1.97;;
2001;SDS011;1003;48.002;7.788;2023-04-03T14:19:29;2.93;;;2.17;;
2001;SDS011;1003;48.002;7.788;2023-04-03T14:22:01;3.07;;;2.13;;
2001;SDS011;1003;48.002;7.788;2023-04-03T14:24:38;2.80;;;2.40;;
2001;SDS011;1003;48.002;7.788;2023-04-03T14:27:08;2.73;;;2.00;;
2001;SDS011;1003;48.002;7.788;2023-04-03T14:29:44;2.60;;;2.27;;
2001;SDS011;1003;48.002;7.788;2023-04-03T14:32:13;2.53;;;2.03;;
2001;SDS011;1003;48.002;7.788;2023-04-03T14:34:47;3.17;;;2.03;;
2001;SDS011;1003;48.002;7.788;2023-04-03T14:37:16;2.13;;;1.93;;
2001;SDS011;1003;48.002;7.788;2023-04-03T14:39:48;2.33;;;2.03;;
2001;SDS011;1003;48.002;7.788;2023-04-03T14:42:18;2.40;;;2.00;;
2001;SDS011;1003;48.002;7.788;2023-04-03T14:44:48;1.97;;;1.80;;
2001;SDS011;1003;48.002;7.788;2023-04-03T14:47:17;5.73;;;3.90;;
2001;SDS011;1003;48.002;7.788;2023-04-03T14:49:47;2.43;;;2.10;;
2001;SDS011;1003;48.002;7.788;2023-04-03T14:52:16;2.63;;;2.40;;
2001;SDS011;1003;48.002;7.788;2023-04-03T14:54:49;2.50;;;2.30;;
2001;SDS011;1003;48.002;7.788;2023-04-03T14:57:18;2.43;;;2.10;;
2001;SDS011;1003;48.002;7.788;2023-04-03T14:59:55;3.17;;;2.10;;
2001;SDS011;1003;48.002;7.788;2023-04-03T15:02:28;2.47;;;2.27;;
2001;SDS011;1003;48.002;7.788;2023-04-03T15:04:57;3.00;;;2.30;;
2001;SDS011;1003;48.002;7.788;2023-04-03T15:07:28;2.40;;;2.20;;
2001;SDS011;1003;48.002;7.788;2023-04-03T15:10:00;2.73;;;2.30;;
2001;SDS011;1003;48.002;7.788;2023-04-03T15:12:39;2.63;;;2.03;;
2001;SDS011;1003;48.002;7.788;2023-04-03T15:15:07;2.40;;;2.20;;
2001;SDS011;1003;48.002;7.788;2023-04-03T15:17:37;2.40;;;2.20;;
2001;SDS011;1003;48.002;7.788;2023-04-03T15:20:06;3.30;;;2.10;;
2001;SDS011;1003;48.002;7.788;2023-04-03T15:22:39;2.90;;;2.43;;
2001;SDS011;1003;48.002;7.788;2023-04-03T15:25:07;3.20;;;2.30;;
2001;SDS011;1003;48.002;7.788;2023-04-03T15:27:35;1.93;;;1.73;;
2001;SDS011;1003;48.002;7.788;2023-04-03T15:30:06;2.23;;;2.00;;
2001;SDS011;1003;48.002;7.788;2023-04-03T15:32:41;2.33;;;2.00;;
2001;SDS011;1003;48.002;7.788;2023-04-03T15:35:08;2.67;;;2.27;;
2001;SDS011;1003;48.002;7.788;2023-04-03T15:37:36;3.23;;;2.40;;
2001;SDS011;1003;48.002;7.788;2023-04-03T15:40:04;4.00;;;3.07;;
2001;SDS011;1003;48.002;7.788;2023-04-03T15:42:33;2.70;;;2.50;;
2001;SDS011;1003;48.002;7.788;2023-04-03T15:45:01;4.00;;;3.23;;
2001;SDS011;1003;48.002;7.788;2023-04-03T15:47:28;3.47;;;2.87;;
2001;SDS011;1003;48.002;7.788;2023-04-03T15:49:57;2.30;;;2.10;;
2001;SDS011;1003;48.002;7.788;2023-04-03T15:52:25;2.40;;;2.20;;
2001;SDS011;1003;48.002;7.788;2023-04-03T15:54:52;2.63;;;2.10;;
2001;SDS011;1003;48.002;7.788;2023-04-03T15:57:19;9.23;;;4.57;;
2001;SDS011;1003;48.002;7.788;2023-04-03T15:59:50;3.97;;;2.70;;
2001;SDS011;1003;48.002;7.788;2023-04-03T16:02:18;2.97;;;2.20;;
2001;SDS011;1003;48.002;7.788;2023-04-03T16:04:49;3.10;;;2.17;;
2001;SDS011;1003;48.002;7.788;2023-04-03T16:07:17;3.60;;;2.97;;
2001;SDS011;1003;48.002;7.788;2023-04-03T16:09:44;2.97;;;2.37;;
2001;SDS011;1003;48.002;7.788;2023-04-03T16:12:11;4.03;;;2.10;;
2001;SDS011;1003;48.002;7.788;2023-04-03T16:14:38;3.40;;;2.20;;
2001;SDS011;1003;48.002;7.788;2023-04-03T16:17:07;2.90;;;1.90;;
2001;SDS011;1003;48.002;7.788;2023-04-03T16:19:35;2.70;;;1.90;;